sensor_id;sensor_type;location;lat;lon;timestamp;P1;durP1;ratioP1;P2;durP2;ratioP2
75823;SDS011;64457;51.976;9.834;2023-06-22T00:00:19;17.70;;;11.77;;
75823;SDS011;64457;51.976;9.834;2023-06-22T00:02:48;17.07;;;11.23;;
75823;SDS011;64457;51.976;9.834;2023-06-22T00:05:17;17.00;;;12.00;;
75823;SDS011;64457;51.976;9.834;2023-06-22T00:07:47;17.20;;;11.33;;
75823;SDS011;64457;51.976;9.834;2023-06-22T00:10:21;19.00;;;11.60;;
75823;SDS011;64457;51.976;9.834;2023-06-22T00:12:54;18.73;;;12.87;;
75823;SDS011;64457;51.976;9.834;2023-06-22T00:15:22;17.63;;;11.90;;
75823;SDS011;64457;51.976;9.834;2023-06-22T00:17:50;14.87;;;11.13;;
75823;SDS011;64457;51.976;9.834;2023-06-22T00:20:19;18.00;;;12.40;;
75823;SDS011;64457;51.976;9.834;2023-06-22T00:22:48;20.00;;;12.93;;
75823;SDS011;64457;51.976;9.834;2023-06-22T00:25:20;22.40;;;12.37;;
75823;SDS011;64457;51.976;9.834;2023-06-22T00:27:54;18.60;;;12.30;;
75823;SDS011;64457;51.976;9.834;2023-06-22T00:30:24;15.97;;;11.77;;
75823;SDS011;64457;51.976;9.834;2023-06-22T00:32:56;18.53;;;12.30;;
75823;SDS011;64457;51.976;9.834;2023-06-22T00:35:25;25.17;;;11.67;;
75823;SDS011;64457;51.976;9.834;2023-06-22T00:37:58;17.63;;;11.20;;
75823;SDS011;64457;51.976;9.834;2023-06-22T00:40:31;16.20;;;11.47;;
75823;SDS011;64457;51.976;9.834;2023-06-22T00:43:08;17.67;;;12.70;;
75823;SDS011;64457;51.976;9.834;2023-06-22T00:45:37;16.00;;;10.83;;
75823;SDS011;64457;51.976;9.834;2023-06-22T00:48:09;15.17;;;10.77;;
75823;SDS011;64457;51.976;9.834;2023-06-22T00:50:43;18.10;;;12.47;;
75823;SDS011;64457;51.976;9.834;2023-06-22T00:53:16;22.50;;;12.20;;
75823;SDS011;64457;51.976;9.834;2023-06-22T00:55:46;18.27;;;12.80;;
75823;SDS011;64457;51.976;9.834;2023-06-22T00:58:19;21.00;;;12.90;;
75823;SDS011;64457;51.976;9.834;2023-06-22T01:00:54;20.43;;;14.00;;
75823;SDS011;64457;51.976;9.834;2023-06-22T01:03:22;20.17;;;13.30;;
75823;SDS011;64457;51.976;9.834;2023-06-22T01:05:54;19.83;;;13.43;;
75823;SDS011;64457;51.976;9.834;2023-06-22T01:08:36;17.13;;;12.37;;
75823;SDS011;64457;51.976;9.834;2023-06-22T01:11:16;18.80;;;13.53;;
75823;SDS011;64457;51.976;9.834;2023-06-22T01:13:53;20.17;;;13.93;;
75823;SDS011;64457;51.976;9.834;2023-06-22T01:16:31;19.50;;;12.80;;
75823;SDS011;64457;51.976;9.834;2023-06-22T01:19:05;19.03;;;12.50;;
75823;SDS011;64457;51.976;9.834;2023-06-22T01:21:52;19.40;;;13.33;;
75823;SDS011;64457;51.976;9.834;2023-06-22T01:24:23;23.90;;;13.50;;
75823;SDS011;64457;51.976;9.834;2023-06-22T01:27:04;24.80;;;13.67;;
75823;SDS011;64457;51.976;9.834;2023-06-22T01:29:58;18.90;;;12.97;;
75823;SDS011;64457;51.976;9.834;2023-06-22T01:32:31;23.17;;;13.37;;
75823;SDS011;64457;51.976;9.834;2023-06-22T01:35:03;20.83;;;13.60;;
75823;SDS011;64457;51.976;9.834;2023-06-22T01:37:48;17.90;;;12.37;;
75823;SDS011;64457;51.976;9.834;2023-06-22T01:40:17;18.40;;;12.87;;
75823;SDS011;64457;51.976;9.834;2023-06-22T01:42:46;20.57;;;12.93;;
75823;SDS011;64457;51.976;9.834;2023-06-22T01:45:16;19.53;;;13.70;;
75823;SDS011;64457;51.976;9.834;2023-06-22T01:47:47;18.70;;;13.70;;
75823;SDS011;64457;51.976;9.834;2023-06-22T01:50:16;21.20;;;12.70;;
75823;SDS011;64457;51.976;9.834;2023-06-22T01:52:45;19.30;;;13.30;;
75823;SDS011;64457;51.976;9.834;2023-06-22T01:55:15;19.20;;;12.53;;
75823;SDS011;64457;51.976;9.834;2023-06-22T01:57:44;18.00;;;13.70;;
75823;SDS011;64457;51.976;9.834;2023-06-22T02:00:12;20.13;;;13.10;;
75823;SDS011;64457;51.976;9.834;2023-06-22T02:02:49;20.37;;;13.40;;
75823;SDS011;64457;51.976;9.834;2023-06-22T02:05:25;23.87;;;13.90;;
75823;SDS011;64457;51.976;9.834;2023-06-22T02:08:06;28.30;;;14.90;;
75823;SDS011;64457;51.976;9.834;2023-06-22T02:10:40;21.13;;;14.00;;
75823;SDS011;64457;51.976;9.834;2023-06-22T02:13:10;22.10;;;14.63;;
75823;SDS011;64457;51.976;9.834;2023-06-22T02:15:41;23.40;;;14.10;;
75823;SDS011;64457;51.976;9.834;2023-06-22T02:18:10;18.30;;;12.70;;
75823;SDS011;64457;51.976;9.834;2023-06-22T02:20:38;21.63;;;12.97;;
75823;SDS011;64457;51.976;9.834;2023-06-22T02:23:07;21.20;;;11.53;;
75823;SDS011;64457;51.976;9.834;2023-06-22T02:25:35;20.80;;;12.43;;
75823;SDS011;64457;51.976;9.834;2023-06-22T02:28:03;18.47;;;12.20;;
75823;SDS011;64457;51.976;9.834;2023-06-22T02:30:31;21.07;;;12.23;;
75823;SDS011;64457;51.976;9.834;2023-06-22T02:33:00;29.40;;;12.47;;
75823;SDS011;64457;51.976;9.834;2023-06-22T02:35:28;20.60;;;12.90;;
75823;SDS011;64457;51.976;9.834;2023-06-22T02:37:57;25.50;;;13.00;;
75823;SDS011;64457;51.976;9.834;2023-06-22T02:40:26;19.83;;;11.40;;
75823;SDS011;64457;51.976;9.834;2023-06-22T02:42:55;25.53;;;13.10;;
75823;SDS011;64457;51.976;9.834;2023-06-22T02:45:27;23.07;;;12.77;;
75823;SDS011;64457;51.976;9.834;2023-06-22T02:47:55;25.60;;;12.53;;
75823;SDS011;64457;51.976;9.834;2023-06-22T02:50:27;23.60;;;12.63;;
75823;SDS011;64457;51.976;9.834;2023-06-22T02:52:58;23.93;;;14.10;;
75823;SDS011;64457;51.976;9.834;2023-06-22T02:55:25;21.03;;;13.63;;
75823;SDS011;64457;51.976;9.834;2023-06-22T02:57:53;23.47;;;12.87;;
75823;SDS011;64457;51.976;9.834;2023-06-22T03:00:22;22.80;;;13.13;;
75823;SDS011;64457;51.976;9.834;2023-06-22T03:02:55;26.83;;;13.53;;
75823;SDS011;64457;51.976;9.834;2023-06-22T03:05:25;19.53;;;12.63;;
75823;SDS011;64457;51.976;9.834;2023-06-22T03:07:53;28.43;;;13.53;;
75823;SDS011;64457;51.976;9.834;2023-06-22T03:10:21;24.60;;;13.13;;
75823;SDS011;64457;51.976;9.834;2023-06-22T03:12:49;20.20;;;12.60;;
75823;SDS011;64457;51.976;9.834;2023-06-22T03:15:19;30.50;;;12.73;;
75823;SDS011;64457;51.976;9.834;2023-06-22T03:17:59;21.40;;;12.43;;
75823;SDS011;64457;51.976;9.834;2023-06-22T03:20:36;28.67;;;13.53;;
75823;SDS011;64457;51.976;9.834;2023-06-22T03:23:05;17.93;;;12.00;;
75823;SDS011;64457;51.976;9.834;2023-06-22T03:25:33;21.13;;;12.80;;
75823;SDS011;64457;51.976;9.834;2023-06-22T03:28:02;26.43;;;12.87;;
75823;SDS011;64457;51.976;9.834;2023-06-22T03:30:30;23.40;;;12.30;;
75823;SDS011;64457;51.976;9.834;2023-06-22T03:32:58;19.87;;;12.57;;
75823;SDS011;64457;51.976;9.834;2023-06-22T03:35:26;33.73;;;14.43;;
75823;SDS011;64457;51.976;9.834;2023-06-22T03:37:56;27.17;;;15.47;;
75823;SDS011;64457;51.976;9.834;2023-06-22T03:40:23;21.73;;;13.60;;
75823;SDS011;64457;51.976;9.834;2023-06-22T03:42:51;25.13;;;13.33;;
75823;SDS011;64457;51.976;9.834;2023-06-22T03:45:19;20.23;;;13.40;;
75823;SDS011;64457;51.976;9.834;2023-06-22T03:47:46;25.23;;;13.07;;
75823;SDS011;64457;51.976;9.834;2023-06-22T03:50:14;20.70;;;13.80;;
75823;SDS011;64457;51.976;9.834;2023-06-22T03:52:42;23.43;;;13.37;;
75823;SDS011;64457;51.976;9.834;2023-06-22T03:55:12;20.70;;;13.43;;
75823;SDS011;64457;51.976;9.834;2023-06-22T03:57:40;26.17;;;13.70;;
75823;SDS011;64457;51.976;9.834;2023-06-22T04:00:10;22.20;;;13.60;;
75823;SDS011;64457;51.976;9.834;2023-06-22T04:02:41;27.07;;;12.50;;
75823;SDS011;64457;51.976;9.834;2023-06-22T04:05:08;20.30;;;12.70;;
75823;SDS011;64457;51.976;9.834;2023-06-22T04:07:36;23.30;;;12.60;;
75823;SDS011;64457;51.976;9.834;2023-06-22T04:10:05;20.80;;;12.30;;
75823;SDS011;64457;51.976;9.834;2023-06-22T04:12:35;27.03;;;12.30;;
75823;SDS011;64457;51.976;9.834;2023-06-22T04:15:04;20.73;;;12.23;;
75823;SDS011;64457;51.976;9.834;2023-06-22T04:17:33;20.30;;;12.80;;
75823;SDS011;64457;51.976;9.834;2023-06-22T04:20:00;18.93;;;11.63;;
75823;SDS011;64457;51.976;9.834;2023-06-22T04:22:30;20.97;;;12.30;;
75823;SDS011;64457;51.976;9.834;2023-06-22T04:24:58;21.03;;;11.97;;
75823;SDS011;64457;51.976;9.834;2023-06-22T04:27:26;21.93;;;12.40;;
75823;SDS011;64457;51.976;9.834;2023-06-22T04:29:55;21.60;;;11.63;;
75823;SDS011;64457;51.976;9.834;2023-06-22T04:32:25;20.00;;;12.20;;
75823;SDS011;64457;51.976;9.834;2023-06-22T04:34:53;23.03;;;13.33;;
75823;SDS011;64457;51.976;9.834;2023-06-22T04:37:21;26.00;;;12.50;;
75823;SDS011;64457;51.976;9.834;2023-06-22T04:39:49;19.27;;;12.50;;
75823;SDS011;64457;51.976;9.834;2023-06-22T04:42:18;17.80;;;12.37;;
75823;SDS011;64457;51.976;9.834;2023-06-22T04:44:46;21.67;;;12.80;;
75823;SDS011;64457;51.976;9.834;2023-06-22T04:47:18;18.60;;;13.10;;
75823;SDS011;64457;51.976;9.834;2023-06-22T04:49:47;22.73;;;13.63;;
75823;SDS011;64457;51.976;9.834;2023-06-22T04:52:16;25.77;;;12.60;;
75823;SDS011;64457;51.976;9.834;2023-06-22T04:54:45;25.77;;;12.90;;
75823;SDS011;64457;51.976;9.834;2023-06-22T04:57:21;22.00;;;13.23;;
75823;SDS011;64457;51.976;9.834;2023-06-22T04:59:58;24.00;;;12.57;;
75823;SDS011;64457;51.976;9.834;2023-06-22T05:02:38;24.33;;;13.90;;
75823;SDS011;64457;51.976;9.834;2023-06-22T05:05:06;22.53;;;14.17;;
75823;SDS011;64457;51.976;9.834;2023-06-22T05:07:39;24.77;;;13.10;;
75823;SDS011;64457;51.976;9.834;2023-06-22T05:10:09;27.20;;;14.03;;
75823;SDS011;64457;51.976;9.834;2023-06-22T05:12:38;20.70;;;13.27;;
75823;SDS011;64457;51.976;9.834;2023-06-22T05:15:07;27.17;;;14.23;;
75823;SDS011;64457;51.976;9.834;2023-06-22T05:17:36;28.40;;;13.10;;
75823;SDS011;64457;51.976;9.834;2023-06-22T05:20:08;23.97;;;13.97;;
75823;SDS011;64457;51.976;9.834;2023-06-22T05:22:39;25.63;;;13.30;;
75823;SDS011;64457;51.976;9.834;2023-06-22T05:25:09;24.73;;;13.00;;
75823;SDS011;64457;51.976;9.834;2023-06-22T05:27:38;38.67;;;14.20;;
75823;SDS011;64457;51.976;9.834;2023-06-22T05:30:09;25.10;;;13.87;;
75823;SDS011;64457;51.976;9.834;2023-06-22T05:32:43;21.83;;;13.73;;
75823;SDS011;64457;51.976;9.834;2023-06-22T05:35:11;25.87;;;14.33;;
75823;SDS011;64457;51.976;9.834;2023-06-22T05:37:39;27.13;;;14.00;;
75823;SDS011;64457;51.976;9.834;2023-06-22T05:40:08;27.37;;;15.00;;
75823;SDS011;64457;51.976;9.834;2023-06-22T05:42:37;32.87;;;13.97;;
75823;SDS011;64457;51.976;9.834;2023-06-22T05:45:05;32.67;;;15.57;;
75823;SDS011;64457;51.976;9.834;2023-06-22T05:47:34;34.10;;;14.40;;
75823;SDS011;64457;51.976;9.834;2023-06-22T05:50:04;27.53;;;14.53;;
75823;SDS011;64457;51.976;9.834;2023-06-22T05:52:37;32.87;;;14.43;;
75823;SDS011;64457;51.976;9.834;2023-06-22T05:55:05;24.63;;;14.00;;
75823;SDS011;64457;51.976;9.834;2023-06-22T05:57:33;24.47;;;15.03;;
75823;SDS011;64457;51.976;9.834;2023-06-22T06:00:02;20.37;;;14.70;;
75823;SDS011;64457;51.976;9.834;2023-06-22T06:02:35;24.03;;;14.63;;
75823;SDS011;64457;51.976;9.834;2023-06-22T06:05:10;38.27;;;15.20;;
75823;SDS011;64457;51.976;9.834;2023-06-22T06:07:40;26.20;;;14.67;;
75823;SDS011;64457;51.976;9.834;2023-06-22T06:10:10;24.60;;;14.27;;
75823;SDS011;64457;51.976;9.834;2023-06-22T06:12:38;24.17;;;14.03;;
75823;SDS011;64457;51.976;9.834;2023-06-22T06:15:08;26.30;;;15.57;;
75823;SDS011;64457;51.976;9.834;2023-06-22T06:17:44;26.00;;;14.70;;
75823;SDS011;64457;51.976;9.834;2023-06-22T06:20:14;31.53;;;15.60;;
75823;SDS011;64457;51.976;9.834;2023-06-22T06:22:45;31.70;;;15.60;;
75823;SDS011;64457;51.976;9.834;2023-06-22T06:25:14;28.60;;;14.87;;
75823;SDS011;64457;51.976;9.834;2023-06-22T06:27:45;24.00;;;14.73;;
75823;SDS011;64457;51.976;9.834;2023-06-22T06:30:14;24.30;;;13.87;;
75823;SDS011;64457;51.976;9.834;2023-06-22T06:32:43;21.80;;;13.93;;
75823;SDS011;64457;51.976;9.834;2023-06-22T06:35:13;23.60;;;14.57;;
75823;SDS011;64457;51.976;9.834;2023-06-22T06:37:43;26.27;;;15.67;;
75823;SDS011;64457;51.976;9.834;2023-06-22T06:40:13;26.47;;;15.27;;
75823;SDS011;64457;51.976;9.834;2023-06-22T06:42:45;25.00;;;15.70;;
75823;SDS011;64457;51.976;9.834;2023-06-22T06:45:15;25.70;;;14.33;;
75823;SDS011;64457;51.976;9.834;2023-06-22T06:47:48;23.57;;;15.53;;
75823;SDS011;64457;51.976;9.834;2023-06-22T06:50:18;32.43;;;14.77;;
75823;SDS011;64457;51.976;9.834;2023-06-22T06:52:46;26.57;;;15.53;;
75823;SDS011;64457;51.976;9.834;2023-06-22T06:55:15;27.20;;;15.20;;
75823;SDS011;64457;51.976;9.834;2023-06-22T06:57:44;29.40;;;15.80;;
75823;SDS011;64457;51.976;9.834;2023-06-22T07:00:15;27.67;;;15.43;;
75823;SDS011;64457;51.976;9.834;2023-06-22T07:02:45;33.10;;;16.27;;
75823;SDS011;64457;51.976;9.834;2023-06-22T07:05:14;23.87;;;15.30;;
75823;SDS011;64457;51.976;9.834;2023-06-22T07:07:44;24.50;;;15.20;;
75823;SDS011;64457;51.976;9.834;2023-06-22T07:10:13;27.37;;;15.43;;
75823;SDS011;64457;51.976;9.834;2023-06-22T07:12:42;28.40;;;15.17;;
75823;SDS011;64457;51.976;9.834;2023-06-22T07:15:14;22.63;;;14.93;;
75823;SDS011;64457;51.976;9.834;2023-06-22T07:17:49;20.90;;;14.60;;
75823;SDS011;64457;51.976;9.834;2023-06-22T07:20:21;26.00;;;15.23;;
75823;SDS011;64457;51.976;9.834;2023-06-22T07:22:56;25.37;;;15.90;;
75823;SDS011;64457;51.976;9.834;2023-06-22T07:25:25;23.00;;;14.73;;
75823;SDS011;64457;51.976;9.834;2023-06-22T07:27:57;26.73;;;16.77;;
75823;SDS011;64457;51.976;9.834;2023-06-22T07:30:26;36.30;;;16.40;;
75823;SDS011;64457;51.976;9.834;2023-06-22T07:32:55;21.17;;;15.23;;
75823;SDS011;64457;51.976;9.834;2023-06-22T07:35:23;22.90;;;16.00;;
75823;SDS011;64457;51.976;9.834;2023-06-22T07:37:52;26.57;;;17.30;;
75823;SDS011;64457;51.976;9.834;2023-06-22T07:40:21;30.00;;;17.40;;
75823;SDS011;64457;51.976;9.834;2023-06-22T07:42:49;28.70;;;17.97;;
75823;SDS011;64457;51.976;9.834;2023-06-22T07:45:19;28.23;;;18.43;;
75823;SDS011;64457;51.976;9.834;2023-06-22T07:47:47;24.47;;;16.33;;
75823;SDS011;64457;51.976;9.834;2023-06-22T07:50:16;22.97;;;15.57;;
75823;SDS011;64457;51.976;9.834;2023-06-22T07:52:44;24.17;;;15.10;;
75823;SDS011;64457;51.976;9.834;2023-06-22T07:55:13;23.30;;;14.20;;
75823;SDS011;64457;51.976;9.834;2023-06-22T07:57:42;21.60;;;14.57;;
75823;SDS011;64457;51.976;9.834;2023-06-22T08:00:14;26.43;;;13.63;;
75823;SDS011;64457;51.976;9.834;2023-06-22T08:02:45;27.27;;;14.80;;
75823;SDS011;64457;51.976;9.834;2023-06-22T08:05:13;22.00;;;14.80;;
75823;SDS011;64457;51.976;9.834;2023-06-22T08:07:42;27.27;;;15.97;;
75823;SDS011;64457;51.976;9.834;2023-06-22T08:10:11;25.57;;;15.03;;
75823;SDS011;64457;51.976;9.834;2023-06-22T08:12:39;24.00;;;14.90;;
75823;SDS011;64457;51.976;9.834;2023-06-22T08:15:10;25.67;;;15.17;;
75823;SDS011;64457;51.976;9.834;2023-06-22T08:17:39;25.23;;;15.17;;
75823;SDS011;64457;51.976;9.834;2023-06-22T08:20:08;23.90;;;15.10;;
75823;SDS011;64457;51.976;9.834;2023-06-22T08:22:38;25.03;;;15.50;;
75823;SDS011;64457;51.976;9.834;2023-06-22T08:25:07;25.90;;;14.83;;
75823;SDS011;64457;51.976;9.834;2023-06-22T08:27:36;32.90;;;15.30;;
75823;SDS011;64457;51.976;9.834;2023-06-22T08:30:05;26.30;;;14.50;;
75823;SDS011;64457;51.976;9.834;2023-06-22T08:32:37;21.90;;;13.90;;
75823;SDS011;64457;51.976;9.834;2023-06-22T08:35:06;21.97;;;14.30;;
75823;SDS011;64457;51.976;9.834;2023-06-22T08:37:35;23.53;;;14.40;;
75823;SDS011;64457;51.976;9.834;2023-06-22T08:40:05;34.63;;;15.27;;
75823;SDS011;64457;51.976;9.834;2023-06-22T08:42:35;27.90;;;14.80;;
75823;SDS011;64457;51.976;9.834;2023-06-22T08:45:04;21.13;;;13.70;;
75823;SDS011;64457;51.976;9.834;2023-06-22T08:47:37;22.33;;;14.40;;
75823;SDS011;64457;51.976;9.834;2023-06-22T08:50:07;18.67;;;13.47;;
75823;SDS011;64457;51.976;9.834;2023-06-22T08:52:36;22.50;;;13.63;;
75823;SDS011;64457;51.976;9.834;2023-06-22T08:55:06;21.83;;;13.83;;
75823;SDS011;64457;51.976;9.834;2023-06-22T08:57:35;22.07;;;13.40;;
75823;SDS011;64457;51.976;9.834;2023-06-22T09:00:05;26.93;;;14.07;;
75823;SDS011;64457;51.976;9.834;2023-06-22T09:02:43;23.97;;;14.43;;
75823;SDS011;64457;51.976;9.834;2023-06-22T09:05:13;20.73;;;13.63;;
75823;SDS011;64457;51.976;9.834;2023-06-22T09:07:41;22.40;;;12.87;;
75823;SDS011;64457;51.976;9.834;2023-06-22T09:10:09;17.80;;;12.60;;
75823;SDS011;64457;51.976;9.834;2023-06-22T09:12:38;21.93;;;13.37;;
75823;SDS011;64457;51.976;9.834;2023-06-22T09:15:10;20.20;;;13.90;;
75823;SDS011;64457;51.976;9.834;2023-06-22T09:17:38;22.37;;;13.70;;
75823;SDS011;64457;51.976;9.834;2023-06-22T09:20:08;20.13;;;14.30;;
75823;SDS011;64457;51.976;9.834;2023-06-22T09:22:37;21.43;;;13.17;;
75823;SDS011;64457;51.976;9.834;2023-06-22T09:25:06;21.97;;;14.13;;
75823;SDS011;64457;51.976;9.834;2023-06-22T09:27:35;35.60;;;13.67;;
75823;SDS011;64457;51.976;9.834;2023-06-22T09:30:03;19.97;;;13.70;;
75823;SDS011;64457;51.976;9.834;2023-06-22T09:32:34;22.53;;;12.60;;
75823;SDS011;64457;51.976;9.834;2023-06-22T09:35:04;22.53;;;13.53;;
75823;SDS011;64457;51.976;9.834;2023-06-22T09:37:37;24.77;;;12.47;;
75823;SDS011;64457;51.976;9.834;2023-06-22T09:40:05;22.93;;;13.23;;
75823;SDS011;64457;51.976;9.834;2023-06-22T09:42:37;20.03;;;12.20;;
75823;SDS011;64457;51.976;9.834;2023-06-22T09:45:09;16.80;;;11.73;;
75823;SDS011;64457;51.976;9.834;2023-06-22T09:47:41;16.53;;;11.57;;
75823;SDS011;64457;51.976;9.834;2023-06-22T09:50:09;22.63;;;12.77;;
75823;SDS011;64457;51.976;9.834;2023-06-22T09:52:37;17.40;;;12.30;;
75823;SDS011;64457;51.976;9.834;2023-06-22T09:55:10;24.83;;;12.60;;
75823;SDS011;64457;51.976;9.834;2023-06-22T09:57:38;15.73;;;11.60;;
75823;SDS011;64457;51.976;9.834;2023-06-22T10:00:06;17.47;;;12.13;;
75823;SDS011;64457;51.976;9.834;2023-06-22T10:02:38;16.90;;;12.20;;
75823;SDS011;64457;51.976;9.834;2023-06-22T10:05:08;17.70;;;11.73;;
75823;SDS011;64457;51.976;9.834;2023-06-22T10:07:36;27.43;;;11.40;;
75823;SDS011;64457;51.976;9.834;2023-06-22T10:10:08;16.37;;;10.50;;
75823;SDS011;64457;51.976;9.834;2023-06-22T10:12:40;15.93;;;10.90;;
75823;SDS011;64457;51.976;9.834;2023-06-22T10:15:11;16.90;;;10.97;;
75823;SDS011;64457;51.976;9.834;2023-06-22T10:17:47;17.30;;;10.50;;
75823;SDS011;64457;51.976;9.834;2023-06-22T10:20:15;16.33;;;11.50;;
75823;SDS011;64457;51.976;9.834;2023-06-22T10:22:44;18.27;;;10.97;;
75823;SDS011;64457;51.976;9.834;2023-06-22T10:25:12;16.50;;;10.40;;
75823;SDS011;64457;51.976;9.834;2023-06-22T10:27:48;16.37;;;10.70;;
75823;SDS011;64457;51.976;9.834;2023-06-22T10:30:16;17.20;;;11.20;;
75823;SDS011;64457;51.976;9.834;2023-06-22T10:32:43;18.47;;;11.40;;
75823;SDS011;64457;51.976;9.834;2023-06-22T10:35:18;16.40;;;10.57;;
75823;SDS011;64457;51.976;9.834;2023-06-22T10:37:46;16.00;;;11.10;;
75823;SDS011;64457;51.976;9.834;2023-06-22T10:40:16;16.33;;;10.77;;
75823;SDS011;64457;51.976;9.834;2023-06-22T10:42:45;19.90;;;10.77;;
75823;SDS011;64457;51.976;9.834;2023-06-22T10:45:14;12.57;;;10.10;;
75823;SDS011;64457;51.976;9.834;2023-06-22T10:47:42;15.97;;;10.90;;
75823;SDS011;64457;51.976;9.834;2023-06-22T10:50:11;18.53;;;11.17;;
75823;SDS011;64457;51.976;9.834;2023-06-22T10:52:43;17.83;;;10.40;;
75823;SDS011;64457;51.976;9.834;2023-06-22T10:55:11;15.90;;;10.63;;
75823;SDS011;64457;51.976;9.834;2023-06-22T10:57:59;16.47;;;11.13;;
75823;SDS011;64457;51.976;9.834;2023-06-22T11:00:58;14.63;;;9.00;;
75823;SDS011;64457;51.976;9.834;2023-06-22T11:03:28;13.70;;;8.87;;
75823;SDS011;64457;51.976;9.834;2023-06-22T11:05:58;13.63;;;9.30;;
75823;SDS011;64457;51.976;9.834;2023-06-22T11:08:25;12.90;;;8.70;;
75823;SDS011;64457;51.976;9.834;2023-06-22T11:10:54;13.63;;;9.00;;
75823;SDS011;64457;51.976;9.834;2023-06-22T11:13:22;16.37;;;8.93;;
75823;SDS011;64457;51.976;9.834;2023-06-22T11:15:50;15.33;;;7.90;;
75823;SDS011;64457;51.976;9.834;2023-06-22T11:18:18;11.53;;;8.17;;
75823;SDS011;64457;51.976;9.834;2023-06-22T11:20:45;12.03;;;7.43;;
75823;SDS011;64457;51.976;9.834;2023-06-22T11:23:16;10.40;;;7.40;;
75823;SDS011;64457;51.976;9.834;2023-06-22T11:25:44;10.30;;;7.60;;
75823;SDS011;64457;51.976;9.834;2023-06-22T11:28:12;11.50;;;7.17;;
75823;SDS011;64457;51.976;9.834;2023-06-22T11:30:41;9.10;;;7.40;;
75823;SDS011;64457;51.976;9.834;2023-06-22T11:33:09;14.27;;;8.20;;
75823;SDS011;64457;51.976;9.834;2023-06-22T11:35:38;10.40;;;7.30;;
75823;SDS011;64457;51.976;9.834;2023-06-22T11:38:05;9.43;;;7.53;;
75823;SDS011;64457;51.976;9.834;2023-06-22T11:40:35;13.73;;;7.83;;
75823;SDS011;64457;51.976;9.834;2023-06-22T11:43:05;12.47;;;8.20;;
75823;SDS011;64457;51.976;9.834;2023-06-22T11:45:35;9.93;;;7.77;;
75823;SDS011;64457;51.976;9.834;2023-06-22T11:48:03;9.57;;;7.47;;
75823;SDS011;64457;51.976;9.834;2023-06-22T11:50:32;11.70;;;8.10;;
75823;SDS011;64457;51.976;9.834;2023-06-22T11:53:06;8.90;;;6.90;;
75823;SDS011;64457;51.976;9.834;2023-06-22T11:55:35;10.90;;;7.40;;
75823;SDS011;64457;51.976;9.834;2023-06-22T11:58:06;9.77;;;7.80;;
75823;SDS011;64457;51.976;9.834;2023-06-22T12:00:34;12.93;;;8.00;;
75823;SDS011;64457;51.976;9.834;2023-06-22T12:03:02;11.00;;;7.83;;
75823;SDS011;64457;51.976;9.834;2023-06-22T12:05:33;15.40;;;7.60;;
75823;SDS011;64457;51.976;9.834;2023-06-22T12:08:01;10.10;;;7.70;;
75823;SDS011;64457;51.976;9.834;2023-06-22T12:10:29;13.97;;;8.37;;
75823;SDS011;64457;51.976;9.834;2023-06-22T12:12:58;13.40;;;8.33;;
75823;SDS011;64457;51.976;9.834;2023-06-22T12:15:27;11.20;;;8.37;;
75823;SDS011;64457;51.976;9.834;2023-06-22T12:17:59;10.80;;;7.90;;
75823;SDS011;64457;51.976;9.834;2023-06-22T12:20:28;13.73;;;8.40;;
75823;SDS011;64457;51.976;9.834;2023-06-22T12:22:57;11.27;;;8.50;;
75823;SDS011;64457;51.976;9.834;2023-06-22T12:25:25;9.70;;;7.93;;
75823;SDS011;64457;51.976;9.834;2023-06-22T12:27:53;12.17;;;8.40;;
75823;SDS011;64457;51.976;9.834;2023-06-22T12:30:23;10.70;;;8.00;;
75823;SDS011;64457;51.976;9.834;2023-06-22T12:32:52;13.03;;;8.57;;
75823;SDS011;64457;51.976;9.834;2023-06-22T12:35:20;12.00;;;8.80;;
75823;SDS011;64457;51.976;9.834;2023-06-22T12:37:49;14.90;;;9.40;;
75823;SDS011;64457;51.976;9.834;2023-06-22T12:40:16;11.13;;;9.10;;
75823;SDS011;64457;51.976;9.834;2023-06-22T12:42:45;12.40;;;10.00;;
75823;SDS011;64457;51.976;9.834;2023-06-22T12:45:15;12.60;;;9.97;;
75823;SDS011;64457;51.976;9.834;2023-06-22T12:47:45;14.17;;;10.67;;
75823;SDS011;64457;51.976;9.834;2023-06-22T12:50:15;14.20;;;10.43;;
75823;SDS011;64457;51.976;9.834;2023-06-22T12:52:45;12.93;;;9.80;;
75823;SDS011;64457;51.976;9.834;2023-06-22T12:55:13;14.30;;;9.77;;
75823;SDS011;64457;51.976;9.834;2023-06-22T12:57:41;12.77;;;9.87;;
75823;SDS011;64457;51.976;9.834;2023-06-22T13:00:09;13.10;;;9.63;;
75823;SDS011;64457;51.976;9.834;2023-06-22T13:02:39;24.80;;;10.10;;
75823;SDS011;64457;51.976;9.834;2023-06-22T13:05:09;11.80;;;9.00;;
75823;SDS011;64457;51.976;9.834;2023-06-22T13:07:39;18.80;;;9.00;;
75823;SDS011;64457;51.976;9.834;2023-06-22T13:10:08;16.43;;;8.77;;
75823;SDS011;64457;51.976;9.834;2023-06-22T13:12:37;12.57;;;8.77;;
75823;SDS011;64457;51.976;9.834;2023-06-22T13:15:05;9.87;;;8.37;;
75823;SDS011;64457;51.976;9.834;2023-06-22T13:17:34;10.90;;;8.63;;
75823;SDS011;64457;51.976;9.834;2023-06-22T13:20:02;13.33;;;9.20;;
75823;SDS011;64457;51.976;9.834;2023-06-22T13:22:33;10.07;;;8.30;;
75823;SDS011;64457;51.976;9.834;2023-06-22T13:25:05;13.47;;;9.73;;
75823;SDS011;64457;51.976;9.834;2023-06-22T13:27:37;13.10;;;8.70;;
75823;SDS011;64457;51.976;9.834;2023-06-22T13:30:05;13.73;;;9.53;;
75823;SDS011;64457;51.976;9.834;2023-06-22T13:32:35;11.10;;;9.10;;
75823;SDS011;64457;51.976;9.834;2023-06-22T13:35:02;10.93;;;8.93;;
75823;SDS011;64457;51.976;9.834;2023-06-22T13:37:39;13.87;;;10.40;;
75823;SDS011;64457;51.976;9.834;2023-06-22T13:40:08;14.10;;;11.07;;
75823;SDS011;64457;51.976;9.834;2023-06-22T13:42:37;15.73;;;10.10;;
75823;SDS011;64457;51.976;9.834;2023-06-22T13:45:06;14.83;;;10.07;;
75823;SDS011;64457;51.976;9.834;2023-06-22T13:47:40;12.90;;;9.83;;
75823;SDS011;64457;51.976;9.834;2023-06-22T13:50:08;11.73;;;9.63;;
75823;SDS011;64457;51.976;9.834;2023-06-22T13:52:39;14.87;;;9.70;;
75823;SDS011;64457;51.976;9.834;2023-06-22T13:55:08;15.50;;;11.30;;
75823;SDS011;64457;51.976;9.834;2023-06-22T13:57:36;15.30;;;10.80;;
75823;SDS011;64457;51.976;9.834;2023-06-22T14:00:05;14.20;;;11.27;;
75823;SDS011;64457;51.976;9.834;2023-06-22T14:02:34;12.67;;;10.60;;
75823;SDS011;64457;51.976;9.834;2023-06-22T14:05:02;16.67;;;11.60;;
75823;SDS011;64457;51.976;9.834;2023-06-22T14:07:31;15.03;;;11.60;;
75823;SDS011;64457;51.976;9.834;2023-06-22T14:10:00;14.07;;;10.57;;
75823;SDS011;64457;51.976;9.834;2023-06-22T14:12:29;15.40;;;10.87;;
75823;SDS011;64457;51.976;9.834;2023-06-22T14:15:04;15.50;;;10.87;;
75823;SDS011;64457;51.976;9.834;2023-06-22T14:17:42;18.90;;;11.70;;
75823;SDS011;64457;51.976;9.834;2023-06-22T14:20:12;15.90;;;10.70;;
75823;SDS011;64457;51.976;9.834;2023-06-22T14:22:40;15.80;;;11.20;;
75823;SDS011;64457;51.976;9.834;2023-06-22T14:25:10;13.47;;;10.83;;
75823;SDS011;64457;51.976;9.834;2023-06-22T14:27:43;17.70;;;11.13;;
75823;SDS011;64457;51.976;9.834;2023-06-22T14:30:14;13.70;;;11.20;;
75823;SDS011;64457;51.976;9.834;2023-06-22T14:32:43;14.40;;;11.27;;
75823;SDS011;64457;51.976;9.834;2023-06-22T14:35:11;14.50;;;11.40;;
75823;SDS011;64457;51.976;9.834;2023-06-22T14:37:42;16.60;;;11.60;;
75823;SDS011;64457;51.976;9.834;2023-06-22T14:40:13;14.00;;;11.27;;